Time;durP1;ratioP1;P1;durP2;ratioP2;P2;SDS_P1;SDS_P2;PMS_P1;PMS_P2;Temp;Humidity;BMP_temperature;BMP_pressure;BME280_temperature;BME280_humidity;BME280_pressure;Samples;Min_cycle;Max_cycle;Signal;HPM_P1;HPM_P2
2021/07/22 00:00:04;;;;;;;;;;;;;;;15.78;87.46;96440.16;1052859;28;19916;-45
2021/07/22 00:00:34;;;;;;;;;;;;;;;15.84;86.94;96442.97;1052889;28;19912;-46
2021/07/22 00:01:05;;;;;;;;;;;;;;;15.88;86.55;96444.97;1052902;28;19940;-45
2021/07/22 00:01:35;;;;;;;;;;;;;;;15.89;86.90;96443.13;1053054;28;20372;-45
2021/07/22 00:02:05;;;;;;;;;;;;;;;15.84;86.77;96442.97;1052881;28;19919;-46
2021/07/22 00:02:36;;;;;;;;;;;;;;;15.74;86.91;96438.13;1052895;28;19916;-44
2021/07/22 00:03:06;;;;;;;;;;;;;;;15.70;86.27;96440.41;1056923;28;19930;-46
2021/07/22 00:03:36;;;;;;;;;;;;;;;15.72;86.63;96441.00;1057134;28;19915;-46
2021/07/22 00:04:06;;;;;;;;;;;;;;;15.73;86.36;96455.91;1056965;28;20384;-45
2021/07/22 00:04:37;;;;;;;;;;;;;;;15.72;85.92;96445.50;1057018;28;20406;-45
2021/07/22 00:05:08;;;;;;;;;;;;;;;15.69;86.18;96456.56;1052929;28;19924;-46
2021/07/22 00:05:39;;;;;;;;;;;;;;;15.63;86.02;96448.44;1052937;28;20388;-46
2021/07/22 00:06:09;;;;;;;;;;;;;;;15.60;86.48;96448.88;1052929;28;19912;-44
2021/07/22 00:06:39;;;;;;;;;;;;;;;15.61;86.33;96453.16;1053321;28;19923;-45
2021/07/22 00:07:09;;;;;;;;;;;;;;;15.60;86.29;96456.81;1052669;28;19955;-45
2021/07/22 00:07:40;;;;;;;;;;;;;;;15.58;86.24;96448.28;1048764;28;20376;-45
2021/07/22 00:08:13;;;;;;;;;;;;;;;15.58;86.54;96458.09;1048763;28;19947;-45
2021/07/22 00:08:44;;;;;;;;;;;;;;;15.57;87.11;96453.81;1049240;28;19908;-45
2021/07/22 00:09:14;;;;;;;;;;;;;;;15.55;87.03;96454.03;1057531;28;20390;-45
2021/07/22 00:09:44;;;;;;;;;;;;;;;15.55;87.10;96453.22;1061349;28;19899;-48
2021/07/22 00:10:15;;;;;;;;;;;;;;;15.51;87.19;96455.47;1061368;28;19912;-46
2021/07/22 00:10:45;;;;;;;;;;;;;;;15.52;87.52;96456.31;1061226;28;20061;-46
2021/07/22 00:11:15;;;;;;;;;;;;;;;15.54;87.53;96455.06;1053299;28;20338;-45
2021/07/22 00:11:46;;;;;;;;;;;;;;;15.51;87.73;96452.03;1053244;28;19904;-46
2021/07/22 00:12:17;;;;;;;;;;;;;;;15.50;87.30;96453.88;1053215;28;19908;-45
2021/07/22 00:12:47;;;;;;;;;;;;;;;15.51;88.00;96450.19;1053262;28;19912;-47
2021/07/22 00:13:17;;;;;;;;;;;;;;;15.45;87.83;96448.41;1053143;28;20299;-45
2021/07/22 00:13:48;;;;;;;;;;;;;;;15.45;88.07;96451.84;1053462;28;19912;-45
2021/07/22 00:14:18;;;;;;;;;;;;;;;15.50;88.57;96453.88;1053852;28;19919;-46
2021/07/22 00:14:48;;;;;;;;;;;;;;;15.53;87.94;96453.44;1054035;28;19912;-45
2021/07/22 00:15:18;;;;;;;;;;;;;;;15.54;88.04;96449.75;1054000;28;20368;-46
2021/07/22 00:15:49;;;;;;;;;;;;;;;15.52;87.52;96446.50;1054060;28;19912;-45
2021/07/22 00:16:19;;;;;;;;;;;;;;;15.56;87.46;96447.69;1054142;28;19935;-45
2021/07/22 00:16:49;;;;;;;;;;;;;;;15.59;87.26;96447.25;1054052;28;20268;-46
2021/07/22 00:17:20;;;;;;;;;;;;;;;15.63;87.40;96440.47;1054029;28;19908;-46
2021/07/22 00:17:50;;;;;;;;;;;;;;;15.72;87.55;96448.97;1054065;28;19912;-45
2021/07/22 00:18:20;;;;;;;;;;;;;;;15.75;87.06;96445.06;1054033;28;19912;-44
2021/07/22 00:18:51;;;;;;;;;;;;;;;15.66;86.86;96447.19;1054074;28;19923;-46
2021/07/22 00:19:21;;;;;;;;;;;;;;;15.66;86.65;96449.03;1054018;28;20265;-44
2021/07/22 00:19:51;;;;;;;;;;;;;;;15.60;86.58;96451.53;1054040;28;19912;-44
2021/07/22 00:20:21;;;;;;;;;;;;;;;15.59;86.95;96447.25;1053970;28;19915;-45
2021/07/22 00:20:52;;;;;;;;;;;;;;;15.58;87.09;96445.63;1054041;28;19908;-45
2021/07/22 00:21:22;;;;;;;;;;;;;;;15.66;87.05;96446.38;1053946;28;20000;-46
2021/07/22 00:21:52;;;;;;;;;;;;;;;15.67;86.74;96448.00;1054025;28;19919;-46
2021/07/22 00:22:23;;;;;;;;;;;;;;;15.68;86.77;96445.13;1054021;28;20284;-45
2021/07/22 00:22:53;;;;;;;;;;;;;;;15.71;86.85;96443.88;1053953;28;19931;-45
2021/07/22 00:23:23;;;;;;;;;;;;;;;15.68;86.49;96441.66;1053939;28;19983;-46
2021/07/22 00:23:54;;;;;;;;;;;;;;;15.63;87.02;96444.97;1054085;28;19908;-45
2021/07/22 00:24:25;;;;;;;;;;;;;;;15.55;87.15;96440.75;1053905;28;19911;-45
2021/07/22 00:24:55;;;;;;;;;;;;;;;15.64;87.22;96436.78;1054068;28;19996;-45
2021/07/22 00:25:25;;;;;;;;;;;;;;;15.71;86.97;96439.38;1053978;28;20349;-44
2021/07/22 00:25:56;;;;;;;;;;;;;;;15.72;86.75;96443.66;1053931;27;19912;-47
2021/07/22 00:26:26;;;;;;;;;;;;;;;15.75;86.78;96440.56;1053659;28;19920;-47
2021/07/22 00:26:56;;;;;;;;;;;;;;;15.76;86.59;96434.22;1053672;28;19912;-45
2021/07/22 00:27:26;;;;;;;;;;;;;;;15.77;86.88;96432.38;1053597;28;19938;-47
2021/07/22 00:27:57;;;;;;;;;;;;;;;15.75;86.99;96443.22;1053691;28;20442;-46
2021/07/22 00:28:27;;;;;;;;;;;;;;;15.77;87.03;96429.72;1054016;28;19919;-48
2021/07/22 00:28:57;;;;;;;;;;;;;;;15.75;86.16;96434.44;1053991;28;20354;-46
2021/07/22 00:29:30;;;;;;;;;;;;;;;15.75;86.50;96429.13;1054064;28;19912;-47
2021/07/22 00:30:00;;;;;;;;;;;;;;;15.80;86.16;96438.09;1053950;28;20345;-49
2021/07/22 00:30:31;;;;;;;;;;;;;;;15.75;86.66;96429.13;1054015;28;19999;-47
2021/07/22 00:31:02;;;;;;;;;;;;;;;15.73;86.75;96428.53;1054007;28;19919;-45
2021/07/22 00:31:32;;;;;;;;;;;;;;;15.62;86.69;96432.72;1054006;28;19919;-46
2021/07/22 00:32:03;;;;;;;;;;;;;;;15.58;87.21;96435.00;1062082;27;19938;-48
2021/07/22 00:32:33;;;;;;;;;;;;;;;15.56;87.78;96437.09;1062115;27;19982;-46
2021/07/22 00:33:03;;;;;;;;;;;;;;;15.57;87.79;96432.56;1062175;27;19915;-48
2021/07/22 00:33:34;;;;;;;;;;;;;;;15.56;87.57;96436.25;1057882;28;20028;-46
2021/07/22 00:34:04;;;;;;;;;;;;;;;15.48;88.03;96434.69;1053621;28;19976;-46
2021/07/22 00:34:34;;;;;;;;;;;;;;;15.46;88.26;96434.91;1053419;28;19940;-47
2021/07/22 00:35:05;;;;;;;;;;;;;;;15.41;88.63;96431.28;1053812;28;20293;-45
2021/07/22 00:35:35;;;;;;;;;;;;;;;15.41;89.00;96433.94;1053882;27;19976;-45
2021/07/22 00:36:06;;;;;;;;;;;;;;;15.44;89.32;96430.84;1053885;28;19935;-45
2021/07/22 00:36:37;;;;;;;;;;;;;;;15.52;89.12;96430.59;1053959;28;20011;-45
2021/07/22 00:37:07;;;;;;;;;;;;;;;15.59;88.50;96434.00;1053842;28;19912;-47
2021/07/22 00:37:46;;;;;;;;;;;;;;;15.59;88.70;96431.34;1053957;28;20284;-45
2021/07/22 00:38:16;;;;;;;;;;;;;;;15.61;87.88;96431.91;1053536;28;19912;-47
2021/07/22 00:38:49;;;;;;;;;;;;;;;15.63;87.65;96429.03;1054031;28;20340;-45
2021/07/22 00:39:19;;;;;;;;;;;;;;;15.62;87.44;96422.94;1054043;28;19909;-45
2021/07/22 00:39:49;;;;;;;;;;;;;;;15.60;87.34;96432.13;1054113;28;19916;-46
2021/07/22 00:40:20;;;;;;;;;;;;;;;15.57;87.05;96433.38;1053782;27;19931;-46
2021/07/22 00:40:50;;;;;;;;;;;;;;;15.53;87.57;96423.41;1053845;28;20245;-45
2021/07/22 00:41:20;;;;;;;;;;;;;;;15.51;87.25;96436.09;1054007;28;19966;-46
2021/07/22 00:41:51;;;;;;;;;;;;;;;15.49;87.30;96433.66;1054020;28;19912;-46
2021/07/22 00:42:21;;;;;;;;;;;;;;;15.48;87.47;96431.25;1053850;28;19912;-44
2021/07/22 00:42:54;;;;;;;;;;;;;;;15.52;88.17;96429.78;1053849;28;19919;-44
2021/07/22 00:43:24;;;;;;;;;;;;;;;15.52;87.71;96432.44;1053927;28;20318;-46
2021/07/22 00:43:55;;;;;;;;;;;;;;;15.51;87.45;96434.25;1053517;28;19947;-45
2021/07/22 00:44:26;;;;;;;;;;;;;;;15.54;87.82;96433.81;1053434;28;19915;-45
2021/07/22 00:44:56;;;;;;;;;;;;;;;15.55;87.84;96429.34;1053569;28;19905;-45
2021/07/22 00:45:27;;;;;;;;;;;;;;;15.56;88.00;96434.44;1053683;28;20372;-47
2021/07/22 00:45:57;;;;;;;;;;;;;;;15.54;88.10;96431.16;1053935;28;19942;-45
2021/07/22 00:46:28;;;;;;;;;;;;;;;15.52;88.17;96424.47;1054047;28;20303;-44
2021/07/22 00:46:58;;;;;;;;;;;;;;;15.43;88.51;96427.38;1053629;28;19912;-46
2021/07/22 00:47:28;;;;;;;;;;;;;;;15.40;88.70;96432.34;1053469;28;19912;-46
2021/07/22 00:48:01;;;;;;;;;;;;;;;15.36;88.61;96429.28;1053768;28;19942;-46
2021/07/22 00:48:31;;;;;;;;;;;;;;;15.39;89.13;96426.19;1053556;28;20399;-45
2021/07/22 00:49:01;;;;;;;;;;;;;;;15.36;88.77;96426.63;1054119;28;19912;-44
2021/07/22 00:49:32;;;;;;;;;;;;;;;15.43;89.34;96431.91;1053585;28;19953;-45
2021/07/22 00:50:02;;;;;;;;;;;;;;;15.43;89.02;96429.25;1053681;28;19908;-44
2021/07/22 00:50:32;;;;;;;;;;;;;;;15.49;89.57;96420.41;1053723;28;19912;-45
2021/07/22 00:51:02;;;;;;;;;;;;;;;15.58;89.09;96415.63;1053652;28;19908;-44
2021/07/22 00:51:33;;;;;;;;;;;;;;;15.59;88.79;96419.88;1054085;28;19912;-44
2021/07/22 00:52:03;;;;;;;;;;;;;;;15.57;88.97;96419.31;1053998;28;19939;-45
2021/07/22 00:52:34;;;;;;;;;;;;;;;15.50;88.51;96431.81;1053850;28;19938;-44
2021/07/22 00:53:04;;;;;;;;;;;;;;;15.46;88.86;96426.16;1053949;28;19912;-45
2021/07/22 00:53:35;;;;;;;;;;;;;;;15.44;88.97;96425.53;1054044;28;20264;-46
2021/07/22 00:54:06;;;;;;;;;;;;;;;15.52;89.40;96421.81;1053912;28;20292;-44
2021/07/22 00:54:36;;;;;;;;;;;;;;;15.52;88.50;96427.94;1053711;28;19912;-45
2021/07/22 00:55:07;;;;;;;;;;;;;;;15.58;89.01;96420.94;1053987;28;19948;-44
2021/07/22 00:55:37;;;;;;;;;;;;;;;15.58;88.60;96423.59;1053912;28;19908;-44
2021/07/22 00:56:07;;;;;;;;;;;;;;;15.61;88.52;96417.84;1053977;28;19912;-44
2021/07/22 00:56:39;;;;;;;;;;;;;;;15.64;87.98;96428.03;1053860;28;19912;-44
2021/07/22 00:57:09;;;;;;;;;;;;;;;15.64;87.42;96420.88;1053970;28;19934;-45
2021/07/22 00:57:39;;;;;;;;;;;;;;;15.59;87.68;96415.41;1053797;28;19965;-45
2021/07/22 00:58:09;;;;;;;;;;;;;;;15.56;87.97;96418.50;1053979;28;19918;-47
2021/07/22 00:58:40;;;;;;;;;;;;;;;15.55;88.22;96421.38;1053911;28;20344;-45
2021/07/22 00:59:10;;;;;;;;;;;;;;;15.52;88.18;96416.50;1054030;28;19915;-45
2021/07/22 00:59:40;;;;;;;;;;;;;;;15.48;88.39;96421.44;1053963;28;19958;-46
2021/07/22 01:00:11;;;;;;;;;;;;;;;15.46;88.68;96423.50;1053474;28;19912;-47
2021/07/22 01:00:41;;;;;;;;;;;;;;;15.48;88.43;96420.63;1053434;28;20300;-44
2021/07/22 01:01:12;;;;;;;;;;;;;;;15.43;89.06;96415.97;1049434;28;19912;-46
2021/07/22 01:01:43;;;;;;;;;;;;;;;15.52;89.02;96413.84;1049373;28;19942;-45
2021/07/22 01:02:13;;;;;;;;;;;;;;;15.57;88.95;96412.16;1049511;28;20010;-45
2021/07/22 01:02:43;;;;;;;;;;;;;;;15.57;88.35;96422.75;1053557;28;19915;-45
2021/07/22 01:03:13;;;;;;;;;;;;;;;15.51;88.27;96415.69;1053785;28;19964;-46
2021/07/22 01:03:44;;;;;;;;;;;;;;;15.50;88.26;96414.06;1053734;28;19912;-44
2021/07/22 01:04:14;;;;;;;;;;;;;;;15.48;88.54;96417.97;1053696;28;19912;-48
2021/07/22 01:04:44;;;;;;;;;;;;;;;15.48;88.47;96415.31;1053925;28;19934;-48
2021/07/22 01:05:15;;;;;;;;;;;;;;;15.49;88.90;96412.44;1053777;28;19912;-45
2021/07/22 01:05:45;;;;;;;;;;;;;;;15.45;88.76;96416.56;1053822;28;19932;-48
2021/07/22 01:06:16;;;;;;;;;;;;;;;15.41;89.32;96421.50;1053788;28;19916;-47
2021/07/22 01:06:46;;;;;;;;;;;;;;;15.53;89.49;96421.59;1053876;28;19912;-46
2021/07/22 01:07:16;;;;;;;;;;;;;;;15.58;89.05;96416.44;1053736;28;19948;-45
2021/07/22 01:07:47;;;;;;;;;;;;;;;15.60;88.63;96413.56;1053785;28;20229;-46
2021/07/22 01:08:17;;;;;;;;;;;;;;;15.59;88.20;96417.25;1053482;28;19936;-46
2021/07/22 01:08:47;;;;;;;;;;;;;;;15.58;88.15;96407.66;1053649;28;19959;-47
2021/07/22 01:09:17;;;;;;;;;;;;;;;15.60;88.35;96416.22;1053559;28;19912;-45
2021/07/22 01:09:49;;;;;;;;;;;;;;;15.56;88.12;96410.53;1053453;28;20356;-47
2021/07/22 01:10:19;;;;;;;;;;;;;;;15.52;88.54;96413.84;1061979;27;19974;-44
2021/07/22 01:10:50;;;;;;;;;;;;;;;15.47;88.62;96414.50;1061970;27;20360;-47
2021/07/22 01:11:20;;;;;;;;;;;;;;;15.49;88.43;96412.44;1061890;27;19915;-46
2021/07/22 01:11:50;;;;;;;;;;;;;;;15.48;88.25;96408.16;1062012;27;19911;-49
2021/07/22 01:12:20;;;;;;;;;;;;;;;15.51;88.29;96407.72;1057776;28;19977;-44
2021/07/22 01:12:51;;;;;;;;;;;;;;;15.50;88.89;96413.25;1057729;28;20356;-43
2021/07/22 01:13:21;;;;;;;;;;;;;;;15.42;88.99;96411.69;1057677;28;19947;-45
2021/07/22 01:13:51;;;;;;;;;;;;;;;15.35;89.05;96409.09;1057718;28;19946;-45
2021/07/22 01:14:22;;;;;;;;;;;;;;;15.31;89.67;96417.72;1053308;28;19919;-45
2021/07/22 01:14:52;;;;;;;;;;;;;;;15.34;89.99;96415.44;1053484;28;19965;-46
2021/07/22 01:15:22;;;;;;;;;;;;;;;15.38;90.57;96413.16;1049357;28;19935;-45
2021/07/22 01:15:53;;;;;;;;;;;;;;;15.38;89.85;96413.97;1049183;28;20344;-44
2021/07/22 01:16:23;;;;;;;;;;;;;;;15.43;90.21;96410.66;1053424;28;20376;-47
2021/07/22 01:16:53;;;;;;;;;;;;;;;15.45;89.88;96405.94;1049355;28;19912;-45
2021/07/22 01:17:35;;;;;;;;;;;;;;;15.46;89.38;96408.38;1053417;28;19912;-47
2021/07/22 01:18:06;;;;;;;;;;;;;;;15.43;89.00;96410.66;1053460;28;19912;-46
2021/07/22 01:18:36;;;;;;;;;;;;;;;15.44;88.75;96401.66;1053561;28;20357;-45
2021/07/22 01:19:06;;;;;;;;;;;;;;;15.49;88.75;96409.78;1053781;28;19916;-45
2021/07/22 01:19:37;;;;;;;;;;;;;;;15.56;89.17;96401.75;1053775;28;19916;-46
2021/07/22 01:20:20;;;;;;;;;;;;;;;15.44;88.74;96410.44;1053886;28;20221;-45
2021/07/22 01:20:50;;;;;;;;;;;;;;;15.33;89.37;96413.00;1053786;28;20277;-45
2021/07/22 01:21:22;;;;;;;;;;;;;;;15.28;90.25;96397.75;1053798;28;19912;-47
2021/07/22 01:21:52;;;;;;;;;;;;;;;15.27;90.23;96412.84;1053813;28;19926;-47
2021/07/22 01:22:23;;;;;;;;;;;;;;;15.24;90.75;96407.97;1053852;28;19965;-46
2021/07/22 01:22:54;;;;;;;;;;;;;;;15.19;91.05;96399.06;1053690;28;20357;-46
2021/07/22 01:23:24;;;;;;;;;;;;;;;15.21;91.29;96408.41;1053831;28;19901;-47
2021/07/22 01:23:54;;;;;;;;;;;;;;;15.19;90.67;96405.16;1053807;28;19904;-47
2021/07/22 01:24:24;;;;;;;;;;;;;;;15.16;91.11;96402.94;1053655;28;19901;-46
2021/07/22 01:24:55;;;;;;;;;;;;;;;15.22;91.28;96410.03;1053593;28;19905;-46
2021/07/22 01:25:26;;;;;;;;;;;;;;;15.31;90.89;96401.81;1053749;28;19955;-47
2021/07/22 01:25:56;;;;;;;;;;;;;;;15.24;90.84;96404.50;1053761;28;19930;-45
2021/07/22 01:26:27;;;;;;;;;;;;;;;15.22;91.16;96410.03;1053667;28;19916;-48
2021/07/22 01:26:57;;;;;;;;;;;;;;;15.18;91.13;96408.81;1053751;28;19931;-47
2021/07/22 01:27:27;;;;;;;;;;;;;;;15.18;91.11;96411.47;1053709;28;19912;-44
2021/07/22 01:27:58;;;;;;;;;;;;;;;15.25;91.38;96392.88;1053815;28;19912;-45
2021/07/22 01:28:28;;;;;;;;;;;;;;;15.27;91.27;96401.41;1053536;28;20318;-45
2021/07/22 01:28:58;;;;;;;;;;;;;;;15.28;91.37;96403.84;1053383;28;19912;-44
2021/07/22 01:29:28;;;;;;;;;;;;;;;15.29;91.54;96404.69;1053508;28;19912;-45
2021/07/22 01:29:59;;;;;;;;;;;;;;;15.34;90.73;96398.72;1053460;28;19965;-44
2021/07/22 01:30:29;;;;;;;;;;;;;;;15.29;90.43;96402.03;1053778;28;19912;-46
2021/07/22 01:30:59;;;;;;;;;;;;;;;15.27;90.38;96396.94;1053754;28;20321;-46
2021/07/22 01:31:30;;;;;;;;;;;;;;;15.27;90.86;96396.09;1053739;28;19912;-48
2021/07/22 01:32:04;;;;;;;;;;;;;;;15.24;91.22;96394.72;1053643;28;20253;-46
2021/07/22 01:32:34;;;;;;;;;;;;;;;15.32;91.53;96400.75;1053846;28;20404;-45
2021/07/22 01:33:05;;;;;;;;;;;;;;;15.32;91.06;96398.09;1061899;27;19926;-46
2021/07/22 01:33:35;;;;;;;;;;;;;;;15.30;91.17;96398.31;1061864;27;19911;-45
2021/07/22 01:34:06;;;;;;;;;;;;;;;15.35;90.79;96395.00;1061716;27;19940;-47
2021/07/22 01:34:36;;;;;;;;;;;;;;;15.33;90.95;96397.09;1061526;27;19914;-44
2021/07/22 01:35:07;;;;;;;;;;;;;;;15.35;90.96;96395.84;1053772;28;19913;-46
2021/07/22 01:35:41;;;;;;;;;;;;;;;15.34;90.77;96394.22;1053656;28;20340;-45
2021/07/22 01:36:11;;;;;;;;;;;;;;;15.36;91.68;96399.31;1053744;28;20267;-46
2021/07/22 01:36:42;;;;;;;;;;;;;;;15.33;91.35;96389.13;1053785;28;19918;-45
2021/07/22 01:37:12;;;;;;;;;;;;;;;15.34;91.32;96396.88;1053715;28;20316;-46
2021/07/22 01:37:43;;;;;;;;;;;;;;;15.37;91.23;96395.63;1053799;28;19919;-46
2021/07/22 01:38:13;;;;;;;;;;;;;;;15.35;91.41;96398.50;1053848;28;20407;-47
2021/07/22 01:38:43;;;;;;;;;;;;;;;15.38;91.96;96397.22;1053707;28;19966;-45
2021/07/22 01:39:14;;;;;;;;;;;;;;;15.47;90.92;96398.56;1053816;28;20267;-46
2021/07/22 01:39:44;;;;;;;;;;;;;;;15.48;90.89;96399.41;1053665;28;19912;-45
2021/07/22 01:40:14;;;;;;;;;;;;;;;15.47;90.97;96393.25;1053863;28;19912;-44
2021/07/22 01:40:45;;;;;;;;;;;;;;;15.42;91.12;96393.91;1053672;28;20225;-44
2021/07/22 01:41:15;;;;;;;;;;;;;;;15.47;90.61;96398.56;1053871;28;19916;-44
2021/07/22 01:41:45;;;;;;;;;;;;;;;15.56;90.77;96399.94;1053838;28;19931;-45
2021/07/22 01:42:15;;;;;;;;;;;;;;;15.58;90.73;96397.84;1053746;28;19916;-46
2021/07/22 01:42:46;;;;;;;;;;;;;;;15.61;90.49;96397.41;1053669;28;19912;-44
2021/07/22 01:43:16;;;;;;;;;;;;;;;15.56;90.94;96394.63;1053804;28;19939;-45
2021/07/22 01:43:46;;;;;;;;;;;;;;;15.49;90.45;96396.53;1053701;28;19907;-45
2021/07/22 01:44:17;;;;;;;;;;;;;;;15.44;90.65;96397.19;1053605;28;19915;-45
2021/07/22 01:44:47;;;;;;;;;;;;;;;15.46;91.23;96395.09;1053609;28;20005;-45
2021/07/22 01:45:17;;;;;;;;;;;;;;;15.50;91.02;96397.31;1053776;28;19911;-46
2021/07/22 01:45:47;;;;;;;;;;;;;;;15.58;90.72;96399.72;1053709;28;20253;-46
2021/07/22 01:46:19;;;;;;;;;;;;;;;15.53;90.26;96403.03;1053729;28;19905;-48
2021/07/22 01:46:49;;;;;;;;;;;;;;;15.50;90.50;96399.97;1053710;28;19912;-46
2021/07/22 01:47:19;;;;;;;;;;;;;;;15.43;90.15;96400.06;1053699;28;19900;-46
2021/07/22 01:47:50;;;;;;;;;;;;;;;15.40;90.90;96405.81;1053702;28;19900;-46
2021/07/22 01:48:20;;;;;;;;;;;;;;;15.43;90.81;96408.00;1053787;28;19904;-47
2021/07/22 01:48:50;;;;;;;;;;;;;;;15.49;90.63;96398.34;1053718;28;19904;-46
2021/07/22 01:49:20;;;;;;;;;;;;;;;15.46;90.65;96399.63;1053795;28;20305;-45
2021/07/22 01:49:51;;;;;;;;;;;;;;;15.48;91.01;96402.84;1053784;28;20349;-46
2021/07/22 01:50:21;;;;;;;;;;;;;;;15.49;90.86;96399.19;1053693;28;19944;-49
2021/07/22 01:50:51;;;;;;;;;;;;;;;15.52;91.04;96403.25;1053724;28;20237;-45
2021/07/22 01:51:22;;;;;;;;;;;;;;;15.48;90.70;96396.75;1053642;28;19939;-46
2021/07/22 01:51:52;;;;;;;;;;;;;;;15.47;91.24;96398.56;1053744;28;19907;-47
2021/07/22 01:52:22;;;;;;;;;;;;;;;15.50;91.02;96399.97;1053646;28;20390;-46
2021/07/22 01:52:53;;;;;;;;;;;;;;;15.51;91.20;96398.97;1053691;28;19904;-44
2021/07/22 01:53:23;;;;;;;;;;;;;;;15.53;91.05;96397.72;1053611;28;19912;-43
2021/07/22 01:53:53;;;;;;;;;;;;;;;15.56;90.48;96394.63;1053624;28;19904;-44
2021/07/22 01:54:24;;;;;;;;;;;;;;;15.59;90.41;96402.16;1053367;28;19905;-48
2021/07/22 01:54:54;;;;;;;;;;;;;;;15.59;89.84;96399.50;1053681;28;19904;-45
2021/07/22 01:55:24;;;;;;;;;;;;;;;15.51;89.89;96397.09;1053770;28;19958;-44
2021/07/22 01:55:55;;;;;;;;;;;;;;;15.43;90.13;96398.19;1053618;28;19997;-45
2021/07/22 01:56:25;;;;;;;;;;;;;;;15.42;90.34;96393.91;1053729;28;19916;-46
2021/07/22 01:57:01;;;;;;;;;;;;;;;15.36;90.59;96399.31;1053698;28;20465;-45
2021/07/22 01:57:31;;;;;;;;;;;;;;;15.41;91.54;96397.63;1053478;28;20042;-48
2021/07/22 01:58:02;;;;;;;;;;;;;;;15.44;90.74;96399.84;1053328;28;20430;-45
2021/07/22 01:58:32;;;;;;;;;;;;;;;15.44;90.67;96401.66;1053424;28;19958;-46
2021/07/22 01:59:02;;;;;;;;;;;;;;;15.50;90.82;96400.81;1053378;28;19911;-45
2021/07/22 01:59:35;;;;;;;;;;;;;;;15.48;90.13;96399.41;1053733;28;20264;-44
2021/07/22 02:00:06;;;;;;;;;;;;;;;15.51;90.43;96401.63;1053651;28;19904;-43
2021/07/22 02:00:36;;;;;;;;;;;;;;;15.47;89.95;96390.59;1053720;28;19900;-45
2021/07/22 02:01:06;;;;;;;;;;;;;;;15.44;89.90;96393.69;1053631;28;19905;-45
2021/07/22 02:01:37;;;;;;;;;;;;;;;15.46;90.76;96395.09;1053711;28;20221;-43
2021/07/22 02:02:08;;;;;;;;;;;;;;;15.49;90.72;96388.56;1053613;28;19911;-44
2021/07/22 02:02:38;;;;;;;;;;;;;;;15.43;89.65;96392.09;1053680;28;19901;-44
2021/07/22 02:03:08;;;;;;;;;;;;;;;15.39;89.66;96393.56;1053511;28;19961;-45
2021/07/22 02:03:39;;;;;;;;;;;;;;;15.38;89.60;96395.41;1053650;28;20249;-45
2021/07/22 02:04:09;;;;;;;;;;;;;;;15.35;89.98;96395.84;1053546;28;20341;-46
2021/07/22 02:04:39;;;;;;;;;;;;;;;15.39;89.96;96397.00;1053494;28;20304;-45
2021/07/22 02:05:10;;;;;;;;;;;;;;;15.41;89.77;96391.47;1053610;28;19913;-44
2021/07/22 02:05:40;;;;;;;;;;;;;;;15.38;89.12;96399.88;1053670;28;19919;-45
2021/07/22 02:06:12;;;;;;;;;;;;;;;15.34;88.92;96402.16;1053572;28;19920;-49
2021/07/22 02:06:42;;;;;;;;;;;;;;;15.34;88.86;96388.91;1053704;28;19967;-46
2021/07/22 02:07:12;;;;;;;;;;;;;;;15.40;88.98;96395.19;1053203;28;20017;-48
2021/07/22 02:07:42;;;;;;;;;;;;;;;15.36;89.09;96399.31;1051840;27;19912;-46
2021/07/22 02:08:13;;;;;;;;;;;;;;;15.32;88.67;96390.97;1055200;28;19912;-45
2021/07/22 02:08:43;;;;;;;;;;;;;;;15.34;88.82;96394.22;1057789;28;19919;-46
2021/07/22 02:09:13;;;;;;;;;;;;;;;15.34;88.46;96390.75;1057708;28;19933;-48
2021/07/22 02:09:44;;;;;;;;;;;;;;;15.33;87.97;96400.53;1057779;28;19935;-47
2021/07/22 02:10:14;;;;;;;;;;;;;;;15.34;88.65;96396.88;1057278;28;20341;-48
2021/07/22 02:10:44;;;;;;;;;;;;;;;15.31;88.52;96391.19;1053625;28;20002;-47
2021/07/22 02:11:14;;;;;;;;;;;;;;;15.35;88.59;96389.72;1053655;28;19914;-46
2021/07/22 02:11:45;;;;;;;;;;;;;;;15.33;88.79;96392.56;1053465;28;19908;-48
2021/07/22 02:12:15;;;;;;;;;;;;;;;15.33;88.99;96387.28;1052649;28;20364;-50
2021/07/22 02:12:45;;;;;;;;;;;;;;;15.34;88.40;96382.81;1061080;27;19915;-46
2021/07/22 02:13:16;;;;;;;;;;;;;;;15.37;88.51;96391.13;1062543;27;20283;-47
2021/07/22 02:13:46;;;;;;;;;;;;;;;15.42;88.68;96380.66;1065889;27;19918;-46
2021/07/22 02:14:16;;;;;;;;;;;;;;;15.43;88.87;96382.28;1065887;27;19936;-45
2021/07/22 02:14:50;;;;;;;;;;;;;;;15.45;88.52;96380.22;1058156;27;20408;-44
2021/07/22 02:15:20;;;;;;;;;;;;;;;15.45;87.96;96390.81;1056325;28;20240;-45
2021/07/22 02:15:50;;;;;;;;;;;;;;;15.49;88.42;96387.72;1053448;28;19912;-46
2021/07/22 02:16:21;;;;;;;;;;;;;;;15.45;88.49;96374.91;1053660;28;19912;-46
2021/07/22 02:16:51;;;;;;;;;;;;;;;15.48;88.65;96386.13;1053566;28;20364;-47
2021/07/22 02:17:21;;;;;;;;;;;;;;;15.52;88.44;96388.13;1055204;28;20013;-44
2021/07/22 02:17:51;;;;;;;;;;;;;;;15.48;88.21;96389.59;1057628;28;19912;-45
2021/07/22 02:18:22;;;;;;;;;;;;;;;15.50;88.50;96382.25;1057780;28;19912;-44
2021/07/22 02:18:52;;;;;;;;;;;;;;;15.44;87.90;96389.22;1052922;28;19931;-46
2021/07/22 02:19:22;;;;;;;;;;;;;;;15.48;89.01;96386.13;1052974;27;20024;-46
2021/07/22 02:19:53;;;;;;;;;;;;;;;15.45;88.72;96382.88;1053905;28;19915;-44
2021/07/22 02:20:23;;;;;;;;;;;;;;;15.51;88.89;96385.69;1053514;28;19966;-45
2021/07/22 02:20:53;;;;;;;;;;;;;;;15.59;88.60;96383.56;1053468;28;19920;-45
2021/07/22 02:21:23;;;;;;;;;;;;;;;15.56;88.73;96384.00;1050759;28;19919;-44
2021/07/22 02:21:54;;;;;;;;;;;;;;;15.52;88.09;96387.31;1061744;27;20281;-47
2021/07/22 02:22:24;;;;;;;;;;;;;;;15.51;87.84;96386.50;1056389;28;19968;-49
2021/07/22 02:22:54;;;;;;;;;;;;;;;15.53;87.92;96386.28;1057352;28;19912;-48
2021/07/22 02:23:25;;;;;;;;;;;;;;;15.50;87.04;96386.72;1057332;28;19912;-46
2021/07/22 02:23:55;;;;;;;;;;;;;;;15.45;87.80;96382.88;1048935;28;19900;-47
2021/07/22 02:24:25;;;;;;;;;;;;;;;15.45;88.01;96384.72;1054177;28;19924;-45
2021/07/22 02:24:55;;;;;;;;;;;;;;;15.39;87.68;96383.75;1052996;28;20365;-44
2021/07/22 02:25:26;;;;;;;;;;;;;;;15.40;87.70;96389.88;1053176;28;19911;-46
2021/07/22 02:25:56;;;;;;;;;;;;;;;15.36;87.40;96388.69;1053494;28;19926;-45
2021/07/22 02:26:26;;;;;;;;;;;;;;;15.35;87.77;96382.59;1056367;28;20363;-47
2021/07/22 02:26:57;;;;;;;;;;;;;;;15.32;87.71;96393.63;1057609;28;20000;-47
2021/07/22 02:27:27;;;;;;;;;;;;;;;15.35;88.36;96387.06;1057632;28;19919;-47
2021/07/22 02:27:57;;;;;;;;;;;;;;;15.46;88.52;96386.34;1057686;28;19908;-47
2021/07/22 02:28:28;;;;;;;;;;;;;;;15.49;88.06;96388.56;1054202;28;19912;-45
2021/07/22 02:28:59;;;;;;;;;;;;;;;15.51;88.11;96391.00;1053389;28;20349;-45
2021/07/22 02:29:29;;;;;;;;;;;;;;;15.51;87.71;96385.69;1053255;28;19926;-46
2021/07/22 02:29:59;;;;;;;;;;;;;;;15.47;87.27;96385.31;1053407;28;20422;-46
2021/07/22 02:30:30;;;;;;;;;;;;;;;15.60;87.39;96387.03;1056841;28;19960;-46
2021/07/22 02:31:00;;;;;;;;;;;;;;;15.51;86.95;96391.00;1057601;28;20010;-45
2021/07/22 02:31:30;;;;;;;;;;;;;;;15.50;87.33;96387.53;1057670;28;20303;-45
2021/07/22 02:32:01;;;;;;;;;;;;;;;15.52;87.94;96392.63;1057605;28;19933;-45
2021/07/22 02:32:31;;;;;;;;;;;;;;;15.49;87.81;96393.03;1053695;28;20455;-46
2021/07/22 02:33:02;;;;;;;;;;;;;;;15.50;86.89;96386.72;1053303;28;19916;-47
2021/07/22 02:33:32;;;;;;;;;;;;;;;15.54;86.54;96387.91;1053393;28;19965;-46
2021/07/22 02:34:03;;;;;;;;;;;;;;;15.48;86.42;96386.13;1053351;28;19927;-45
2021/07/22 02:34:33;;;;;;;;;;;;;;;15.43;86.64;96384.94;1057173;28;20287;-45
2021/07/22 02:35:03;;;;;;;;;;;;;;;15.40;86.90;96387.22;1057575;28;20223;-45
2021/07/22 02:35:34;;;;;;;;;;;;;;;15.38;86.89;96386.63;1057733;28;19941;-45
2021/07/22 02:36:04;;;;;;;;;;;;;;;15.38;87.44;96392.75;1057249;28;19948;-49
2021/07/22 02:36:34;;;;;;;;;;;;;;;15.38;87.82;96381.31;1056764;28;20376;-46
2021/07/22 02:37:05;;;;;;;;;;;;;;;15.36;87.85;96380.72;1056913;28;20336;-47
2021/07/22 02:37:35;;;;;;;;;;;;;;;15.41;88.24;96387.00;1057216;28;19918;-45
2021/07/22 02:38:05;;;;;;;;;;;;;;;15.47;87.78;96380.00;1057207;28;19989;-48
2021/07/22 02:38:35;;;;;;;;;;;;;;;15.43;87.38;96384.94;1057236;28;19908;-46
2021/07/22 02:39:06;;;;;;;;;;;;;;;15.43;87.65;96390.25;1057153;28;19920;-49